Tyler Park, New Jersey
Current Conditions -  °F | °C
As of 8:51 PM on Thursday 20 Nov 2014 (Local Time) from KNYC Reporting Station
Clear Clear  
Wind Chill: 32°   Ceiling: Unl
Heat Index: 37°   Visibility: 10mi
Dew Point:   Wind: 6mph
Humidity: 31%   Direction: NA
Pressure: 29.98"   Gusts: 20mph
Location:  40.7933°N, 74.0263°W
Report Text: KNYC 210151Z AUTO VRB05G17KT 10SM CLR 03/M13 A2998 RMK AO2 SLP145 T00281128 $
Loading
Personal Weather Stations






























Interactive Weather Map New forecast layout! Learn more

10-Day Weather Forecast

Advertisements
Track Severe Weather on mobile